createdAt,value
2023-04-05T00:02:02.988Z,0.25
2023-04-05T00:04:34.867Z,0.23
2023-04-05T00:07:08.326Z,0.22
2023-04-05T00:09:36.716Z,0.18
2023-04-05T00:12:10.704Z,0.12
2023-04-05T00:14:44.142Z,0.08
2023-04-05T00:17:13.466Z,0.13
2023-04-05T00:19:43.246Z,0.20
2023-04-05T00:22:12.626Z,0.24
2023-04-05T00:24:43.609Z,0.23
2023-04-05T00:27:14.743Z,0.17
2023-04-05T00:29:43.613Z,0.11
2023-04-05T00:32:12.092Z,0.06
2023-04-05T00:34:41.918Z,0.05
2023-04-05T00:37:11.986Z,0.04
2023-04-05T00:39:40.364Z,-0.01
2023-04-05T00:42:09.433Z,-0.10
2023-04-05T00:44:37.689Z,-0.15
2023-04-05T00:47:09.128Z,-0.19
2023-04-05T00:49:37.844Z,-0.23
2023-04-05T00:52:06.784Z,-0.21
2023-04-05T00:54:35.086Z,-0.14
2023-04-05T00:57:03.703Z,-0.09
2023-04-05T00:59:35.809Z,-0.05
2023-04-05T01:02:19.943Z,0.02
2023-04-05T01:04:50.920Z,0.07
2023-04-05T01:07:31.850Z,0.10
2023-04-05T01:10:00.952Z,0.14
2023-04-05T01:12:33.211Z,0.21
2023-04-05T01:15:01.488Z,0.32
2023-04-05T01:17:36.979Z,0.38
2023-04-05T01:20:10.419Z,0.40
2023-04-05T01:23:02.663Z,0.42
2023-04-05T01:25:54.413Z,0.41
2023-04-05T01:28:42.088Z,0.32
2023-04-05T01:31:19.933Z,0.28
2023-04-05T01:34:38.453Z,0.25
2023-04-05T01:37:08.242Z,0.14
2023-04-05T01:39:36.818Z,0.06
2023-04-05T01:42:06.310Z,-0.02
2023-04-05T01:44:36.903Z,-0.11
2023-04-05T01:47:05.415Z,-0.16
2023-04-05T01:49:33.589Z,-0.13
2023-04-05T01:52:01.869Z,-0.09
2023-04-05T01:54:32.514Z,-0.09
2023-04-05T01:57:01.124Z,-0.11
2023-04-05T01:59:29.592Z,-0.13
2023-04-05T02:01:58.357Z,-0.13
2023-04-05T02:04:27.778Z,-0.12
2023-04-05T02:06:57.226Z,-0.04
2023-04-05T02:09:25.772Z,0.10
2023-04-05T02:13:49.086Z,0.21
2023-04-05T02:16:18.613Z,0.16
2023-04-05T02:18:51.160Z,0.12
2023-04-05T02:21:23.459Z,0.05
2023-04-05T02:23:55.280Z,-0.02
2023-04-05T02:26:23.521Z,-0.03
2023-04-05T02:28:54.758Z,0.00
2023-04-05T02:31:23.278Z,0.00
2023-04-05T02:33:51.568Z,-0.04
2023-04-05T02:36:19.860Z,-0.11
2023-04-05T02:38:48.504Z,-0.17
2023-04-05T02:41:18.556Z,-0.20
2023-04-05T02:43:47.439Z,-0.23
2023-04-05T02:46:16.330Z,-0.22
2023-04-05T02:48:45.852Z,-0.17
2023-04-05T02:51:15.060Z,-0.13
2023-04-05T02:53:45.077Z,-0.15
2023-04-05T02:56:15.228Z,-0.16
2023-04-05T02:58:49.733Z,-0.20
2023-04-05T03:01:20.979Z,-0.27
2023-04-05T03:03:51.166Z,-0.33
2023-04-05T03:06:21.997Z,-0.35
2023-04-05T03:08:51.589Z,-0.33
2023-04-05T03:11:22.700Z,-0.33
2023-04-05T03:13:56.595Z,-0.37
2023-04-05T03:16:44.774Z,-0.44
2023-04-05T03:19:22.640Z,-0.51
2023-04-05T03:21:53.485Z,-0.58
2023-04-05T03:24:29.268Z,-0.58
2023-04-05T03:27:02.745Z,-0.51
2023-04-05T03:29:33.082Z,-0.47
2023-04-05T03:32:05.872Z,-0.49
2023-04-05T03:34:34.830Z,-0.56
2023-04-05T03:37:04.170Z,-0.64
2023-04-05T03:39:40.153Z,-0.70
2023-04-05T03:42:08.235Z,-0.65
2023-04-05T03:44:36.951Z,-0.55
2023-04-05T03:47:08.053Z,-0.48
2023-04-05T03:49:37.408Z,-0.43
2023-04-05T03:52:05.617Z,-0.40
2023-04-05T03:54:33.861Z,-0.38
2023-04-05T03:57:03.099Z,-0.36
2023-04-05T03:59:38.608Z,-0.29
2023-04-05T04:02:07.996Z,-0.18
2023-04-05T04:04:36.656Z,-0.11
2023-04-05T04:07:05.950Z,-0.08
2023-04-05T04:09:34.477Z,-0.06
2023-04-05T04:12:08.462Z,-0.06
2023-04-05T04:14:43.242Z,-0.08
2023-04-05T04:17:34.774Z,-0.08
2023-04-05T04:20:26.656Z,-0.01
2023-04-05T04:23:30.659Z,0.09
2023-04-05T04:26:29.362Z,0.10
2023-04-05T04:29:16.426Z,0.09
2023-04-05T04:32:27.322Z,0.06
2023-04-05T04:35:05.297Z,0.02
2023-04-05T04:38:04.918Z,0.01
2023-04-05T04:40:47.773Z,0.09
2023-04-05T04:43:26.915Z,0.21
2023-04-05T04:46:19.326Z,0.26
2023-04-05T04:49:06.069Z,0.18
2023-04-05T04:51:37.952Z,0.08
2023-04-05T04:54:06.555Z,0.01
2023-04-05T04:56:36.085Z,-0.04
2023-04-05T04:59:04.226Z,-0.08
2023-04-05T05:01:34.275Z,-0.05
2023-04-05T05:05:50.291Z,0.06
2023-04-05T05:08:22.037Z,0.04
2023-04-05T05:10:53.618Z,0.03
2023-04-05T05:13:22.516Z,0.00
2023-04-05T05:15:51.947Z,-0.04
2023-04-05T05:18:20.221Z,-0.06
2023-04-05T05:20:53.254Z,-0.09
2023-04-05T05:23:21.503Z,-0.04
2023-04-05T05:25:49.875Z,0.03
2023-04-05T05:28:18.333Z,0.09
2023-04-05T05:30:55.932Z,0.07
2023-04-05T05:33:25.954Z,0.04
2023-04-05T05:35:54.088Z,0.01
2023-04-05T05:38:22.622Z,-0.06
2023-04-05T05:40:57.913Z,-0.13
2023-04-05T05:43:26.615Z,-0.14
2023-04-05T05:45:54.844Z,-0.09
2023-04-05T05:48:23.537Z,-0.04
2023-04-05T05:50:52.457Z,-0.01
2023-04-05T05:53:22.355Z,0.01
2023-04-05T05:55:50.624Z,0.01
2023-04-05T05:58:19.449Z,-0.04
2023-04-05T06:00:49.963Z,-0.06
2023-04-05T06:03:19.804Z,0.02
2023-04-05T06:05:54.685Z,0.11
2023-04-05T06:08:25.685Z,0.18
2023-04-05T06:10:55.250Z,0.22
2023-04-05T06:13:24.423Z,0.25
2023-04-05T06:15:59.316Z,0.25
2023-04-05T06:18:28.125Z,0.22
2023-04-05T06:20:56.538Z,0.17
2023-04-05T06:23:27.191Z,0.17
2023-04-05T06:25:57.136Z,0.22
2023-04-05T06:28:25.389Z,0.29
2023-04-05T06:30:54.446Z,0.34
2023-04-05T06:33:23.631Z,0.33
2023-04-05T06:35:51.802Z,0.30
2023-04-05T06:38:21.141Z,0.26
2023-04-05T06:40:50.026Z,0.23
2023-04-05T06:43:18.337Z,0.26
2023-04-05T06:45:46.600Z,0.30
2023-04-05T06:48:21.437Z,0.35
2023-04-05T06:51:02.752Z,0.37
2023-04-05T06:53:31.217Z,0.41
2023-04-05T06:56:00.707Z,0.44
2023-04-05T06:58:29.512Z,0.46
2023-04-05T07:00:58.185Z,0.47
2023-04-05T07:03:28.500Z,0.48
2023-04-05T07:06:02.866Z,0.55
2023-04-05T07:08:34.510Z,0.62
2023-04-05T07:11:02.806Z,0.65
2023-04-05T07:13:32.194Z,0.65
2023-04-05T07:16:01.917Z,0.61
2023-04-05T07:18:31.187Z,0.59
2023-04-05T07:21:03.961Z,0.58
2023-04-05T07:23:34.878Z,0.60
2023-04-05T07:26:08.488Z,0.71
2023-04-05T07:28:39.685Z,0.85
2023-04-05T07:31:08.116Z,0.92
2023-04-05T07:33:36.743Z,0.98
2023-04-05T07:36:05.652Z,1.01
2023-04-05T07:38:34.651Z,1.02
2023-04-05T07:41:03.100Z,1.07
2023-04-05T07:43:31.313Z,1.11
2023-04-05T07:46:03.454Z,1.16
2023-04-05T07:48:31.949Z,1.18
2023-04-05T07:51:07.355Z,1.26
2023-04-05T07:53:37.144Z,1.34
2023-04-05T07:56:12.429Z,1.36
2023-04-05T07:58:41.444Z,1.31
2023-04-05T08:01:10.292Z,1.20
2023-04-05T08:03:40.190Z,1.11
2023-04-05T08:06:11.603Z,1.12
2023-04-05T08:08:40.931Z,1.16
2023-04-05T08:11:12.125Z,1.21
2023-04-05T08:13:43.922Z,1.33
2023-04-05T08:16:12.382Z,1.39
2023-04-05T08:21:41.115Z,1.45
2023-04-05T08:24:09.486Z,1.42
2023-04-05T08:26:42.098Z,1.37
2023-04-05T08:29:11.536Z,1.32
2023-04-05T08:31:40.937Z,1.31
2023-04-05T08:34:09.873Z,1.30
2023-04-05T08:36:38.066Z,1.37
2023-04-05T08:39:06.751Z,1.44
2023-04-05T08:41:37.199Z,1.47
2023-04-05T08:44:07.290Z,1.45
2023-04-05T08:46:35.614Z,1.43
2023-04-05T08:49:08.221Z,1.43
2023-04-05T08:51:39.529Z,1.44
2023-04-05T08:54:10.162Z,1.44
2023-04-05T08:56:38.833Z,1.42
2023-04-05T08:59:12.450Z,1.40
2023-04-05T09:01:44.746Z,1.48
2023-04-05T09:04:24.550Z,1.59
2023-04-05T09:06:53.680Z,1.65
2023-04-05T09:09:21.998Z,1.65
2023-04-05T09:11:52.227Z,1.64
2023-04-05T09:14:20.993Z,1.60
2023-04-05T09:16:53.966Z,1.56
2023-04-05T09:19:24.842Z,1.50
2023-04-05T09:22:06.973Z,1.49
2023-04-05T09:24:42.277Z,1.54
2023-04-05T09:27:12.378Z,1.65
2023-04-05T09:29:45.397Z,1.77
2023-04-05T09:32:15.360Z,1.84
2023-04-05T09:34:52.511Z,1.88
2023-04-05T09:37:33.587Z,1.90
2023-04-05T09:40:04.395Z,1.92
2023-04-05T09:42:45.023Z,1.93
2023-04-05T09:45:18.935Z,1.93
2023-04-05T09:48:00.552Z,1.90
2023-04-05T09:50:31.128Z,1.90
2023-04-05T09:53:16.682Z,1.90
2023-04-05T09:55:46.694Z,1.90
2023-04-05T09:58:21.469Z,1.87
2023-04-05T10:01:00.009Z,1.85
2023-04-05T10:03:41.547Z,1.91
2023-04-05T10:06:10.209Z,2.00
2023-04-05T10:08:38.731Z,2.07
2023-04-05T10:11:07.149Z,2.12
2023-04-05T10:13:35.385Z,2.15
2023-04-05T10:16:04.457Z,2.13
2023-04-05T10:18:43.419Z,2.10
2023-04-05T10:21:12.620Z,2.10
2023-04-05T10:23:44.217Z,2.09
2023-04-05T10:26:32.211Z,2.08
2023-04-05T10:29:10.387Z,2.11
2023-04-05T10:31:48.206Z,2.17
2023-04-05T10:34:27.537Z,2.26
2023-04-05T10:37:02.082Z,2.28
2023-04-05T10:39:52.784Z,2.31
2023-04-05T10:42:28.578Z,2.34
2023-04-05T10:45:11.818Z,2.38
2023-04-05T10:47:55.979Z,2.39
2023-04-05T10:50:27.231Z,2.43
2023-04-05T10:53:09.155Z,2.48
2023-04-05T10:55:40.170Z,2.60
2023-04-05T10:58:11.016Z,2.71
2023-04-05T11:00:41.955Z,2.75
2023-04-05T11:03:11.682Z,2.75
2023-04-05T11:05:46.708Z,2.70
2023-04-05T11:08:16.505Z,2.62
2023-04-05T11:10:50.866Z,2.63
2023-04-05T11:13:20.834Z,2.72
2023-04-05T11:16:17.218Z,2.80
2023-04-05T11:18:52.576Z,2.77
2023-04-05T11:21:25.989Z,2.74
2023-04-05T11:24:07.228Z,2.69
2023-04-05T11:26:48.971Z,2.60
2023-04-05T11:29:17.735Z,2.59
2023-04-05T11:32:00.468Z,2.64
2023-04-05T11:34:29.093Z,2.66
2023-04-05T11:36:58.077Z,2.59
2023-04-05T11:39:28.778Z,2.55
2023-04-05T11:42:24.094Z,2.56
2023-04-05T11:44:54.686Z,2.61
2023-04-05T11:47:32.044Z,2.68
2023-04-05T11:52:48.453Z,2.82
2023-04-05T11:55:17.594Z,2.90
2023-04-05T11:57:46.257Z,2.97
2023-04-05T12:00:16.091Z,3.00
2023-04-05T12:02:45.463Z,3.00
2023-04-05T12:05:14.194Z,2.96
2023-04-05T12:07:42.965Z,2.92
2023-04-05T12:10:20.943Z,2.91
2023-04-05T12:12:49.908Z,2.91
2023-04-05T12:15:19.175Z,2.95
2023-04-05T12:17:56.049Z,2.99
2023-04-05T12:20:28.739Z,3.04
2023-04-05T12:23:02.381Z,3.08
2023-04-05T12:25:31.807Z,3.15
2023-04-05T12:28:09.778Z,3.18
2023-04-05T12:30:38.684Z,3.18
2023-04-05T12:33:10.940Z,3.18
2023-04-05T12:35:39.394Z,3.17
2023-04-05T12:38:10.417Z,3.17
2023-04-05T12:40:40.751Z,3.17
2023-04-05T12:43:09.272Z,3.17
2023-04-05T12:45:42.367Z,3.18
2023-04-05T12:48:14.126Z,3.18
2023-04-05T12:50:46.632Z,3.18
2023-04-05T12:53:18.396Z,3.21
2023-04-05T12:55:54.177Z,3.25
2023-04-05T12:58:23.796Z,3.31
2023-04-05T13:00:52.039Z,3.32
2023-04-05T13:03:21.718Z,3.30
2023-04-05T13:05:51.477Z,3.28
2023-04-05T13:08:20.027Z,3.30
2023-04-05T13:10:49.085Z,3.33
2023-04-05T13:13:17.783Z,3.34
2023-04-05T13:15:46.159Z,3.38
2023-04-05T13:18:14.886Z,3.40
2023-04-05T13:20:47.571Z,3.42
2023-04-05T13:23:16.076Z,3.44
2023-04-05T13:25:47.232Z,3.45
2023-04-05T13:28:15.512Z,3.41
2023-04-05T13:30:43.731Z,3.38
2023-04-05T13:33:13.309Z,3.37
2023-04-05T13:35:42.316Z,3.38
2023-04-05T13:38:11.280Z,3.39
2023-04-05T13:40:39.873Z,3.42
2023-04-05T13:43:08.342Z,3.44
2023-04-05T13:45:39.906Z,3.48
2023-04-05T13:48:08.437Z,3.50
2023-04-05T13:50:40.814Z,3.51
2023-04-05T13:53:09.472Z,3.51
2023-04-05T13:55:38.339Z,3.50
2023-04-05T13:58:11.663Z,3.51
2023-04-05T14:00:40.772Z,3.51
2023-04-05T14:03:09.727Z,3.50
2023-04-05T14:05:38.373Z,3.44
2023-04-05T14:08:06.459Z,3.40
2023-04-05T14:10:37.935Z,3.37
2023-04-05T14:13:06.904Z,3.36
2023-04-05T14:15:36.053Z,3.35
2023-04-05T14:18:05.633Z,3.32
2023-04-05T14:20:34.228Z,3.25
2023-04-05T14:23:02.691Z,3.19
2023-04-05T14:25:34.969Z,3.16
2023-04-05T14:28:03.379Z,3.14
2023-04-05T14:31:57.501Z,3.16
2023-04-05T14:34:28.870Z,3.16
2023-04-05T14:36:58.521Z,3.18
2023-04-05T14:39:28.877Z,3.18
2023-04-05T14:41:59.992Z,3.17
2023-04-05T14:44:29.509Z,3.14
2023-04-05T14:46:58.383Z,3.11
2023-04-05T14:49:26.558Z,3.09
2023-04-05T14:51:55.002Z,3.09
2023-04-05T14:54:23.383Z,3.07
2023-04-05T14:56:53.868Z,3.06
2023-04-05T14:59:23.976Z,3.05
2023-04-05T15:01:53.611Z,3.04
2023-04-05T15:04:22.203Z,3.03
2023-04-05T15:06:50.404Z,3.02
2023-04-05T15:09:18.644Z,3.00
2023-04-05T15:11:50.157Z,3.00
2023-04-05T15:14:30.715Z,2.98
2023-04-05T15:17:01.016Z,2.97
2023-04-05T15:19:30.746Z,2.95
2023-04-05T15:21:59.966Z,2.93
2023-04-05T15:24:29.574Z,2.94
2023-04-05T15:27:02.302Z,2.96
2023-04-05T15:29:35.305Z,2.98
2023-04-05T15:32:03.915Z,3.01
2023-04-05T15:34:32.222Z,3.03
2023-04-05T15:37:00.475Z,3.03
2023-04-05T15:39:29.077Z,3.02
2023-04-05T15:41:57.966Z,3.02
2023-04-05T15:44:26.808Z,3.00
2023-04-05T15:46:55.365Z,3.00
2023-04-05T15:49:28.169Z,3.00
2023-04-05T15:52:00.503Z,2.99
2023-04-05T15:54:30.448Z,2.99
2023-04-05T15:56:59.170Z,3.00
2023-04-05T15:59:30.362Z,2.99
2023-04-05T16:01:58.667Z,2.97
2023-04-05T16:04:28.061Z,2.95
2023-04-05T16:06:59.793Z,2.92
2023-04-05T16:09:28.308Z,2.90
2023-04-05T16:11:56.985Z,2.88
2023-04-05T16:14:32.182Z,2.86
2023-04-05T16:17:01.098Z,2.82
2023-04-05T16:19:29.568Z,2.77
2023-04-05T16:21:57.869Z,2.73
2023-04-05T16:24:27.752Z,2.72
2023-04-05T16:26:56.966Z,2.69
2023-04-05T16:29:25.691Z,2.68
2023-04-05T16:31:54.267Z,2.64
2023-04-05T16:34:22.996Z,2.62
2023-04-05T16:36:51.734Z,2.60
2023-04-05T16:39:19.901Z,2.55
2023-04-05T16:41:48.085Z,2.52
2023-04-05T16:44:16.857Z,2.47
2023-04-05T16:46:47.382Z,2.43
2023-04-05T16:49:15.941Z,2.40
2023-04-05T16:51:45.351Z,2.39
2023-04-05T16:54:15.429Z,2.40
2023-04-05T16:56:43.612Z,2.39
2023-04-05T16:59:12.139Z,2.35
2023-04-05T17:01:40.985Z,2.30
2023-04-05T17:04:10.043Z,2.23
2023-04-05T17:06:38.754Z,2.16
2023-04-05T17:09:07.042Z,2.11
2023-04-05T17:11:35.222Z,2.06
2023-04-05T17:14:07.072Z,1.99
2023-04-05T17:16:35.938Z,1.95
2023-04-05T17:19:04.653Z,1.90
2023-04-05T17:21:38.666Z,1.87
2023-04-05T17:24:07.098Z,1.85
2023-04-05T17:26:35.399Z,1.86
2023-04-05T17:29:03.721Z,1.86
2023-04-05T17:31:33.524Z,1.85
2023-04-05T17:34:02.170Z,1.78
2023-04-05T17:36:30.560Z,1.71
2023-04-05T17:38:59.459Z,1.62
2023-04-05T17:41:28.260Z,1.52
2023-04-05T17:43:56.610Z,1.50
2023-04-05T17:46:34.357Z,1.50
2023-04-05T17:49:09.044Z,1.42
2023-04-05T17:51:37.555Z,1.29
2023-04-05T17:54:05.824Z,1.19
2023-04-05T17:56:34.406Z,1.09
2023-04-05T17:59:04.300Z,1.02
2023-04-05T18:04:45.825Z,1.00
2023-04-05T18:07:14.407Z,1.06
2023-04-05T18:10:08.912Z,1.12
2023-04-05T18:12:37.418Z,1.12
2023-04-05T18:15:06.375Z,1.09
2023-04-05T18:17:35.279Z,1.03
2023-04-05T18:20:05.326Z,0.93
2023-04-05T18:22:39.247Z,0.84
2023-04-05T18:25:09.287Z,0.75
2023-04-05T18:27:39.152Z,0.74
2023-04-05T18:30:08.656Z,0.79
2023-04-05T18:32:41.562Z,0.82
2023-04-05T18:35:10.223Z,0.82
2023-04-05T18:37:39.716Z,0.78
2023-04-05T18:40:11.750Z,0.76
2023-04-05T18:42:40.373Z,0.72
2023-04-05T18:45:09.332Z,0.67
2023-04-05T18:47:37.668Z,0.67
2023-04-05T18:50:10.167Z,0.72
2023-04-05T18:52:38.612Z,0.72
2023-04-05T18:55:08.424Z,0.68
2023-04-05T18:57:37.084Z,0.62
2023-04-05T19:00:06.686Z,0.58
2023-04-05T19:02:35.245Z,0.56
2023-04-05T19:05:03.829Z,0.55
2023-04-05T19:07:33.409Z,0.58
2023-04-05T19:10:01.835Z,0.64
2023-04-05T19:12:30.711Z,0.68
2023-04-05T19:14:58.996Z,0.67
2023-04-05T19:17:27.722Z,0.67
2023-04-05T19:19:55.975Z,0.66
2023-04-05T19:22:24.214Z,0.64
2023-04-05T19:24:54.740Z,0.59
2023-04-05T19:27:23.188Z,0.57
2023-04-05T19:29:52.014Z,0.62
2023-04-05T19:32:20.604Z,0.66
2023-04-05T19:34:48.932Z,0.65
2023-04-05T19:37:18.117Z,0.61
2023-04-05T19:39:48.321Z,0.59
2023-04-05T19:42:19.432Z,0.59
2023-04-05T19:44:57.991Z,0.60
2023-04-05T19:47:26.661Z,0.63
2023-04-05T19:49:59.815Z,0.67
2023-04-05T19:52:47.729Z,0.73
2023-04-05T19:55:32.785Z,0.73
2023-04-05T19:58:03.992Z,0.72
2023-04-05T20:00:43.421Z,0.67
2023-04-05T20:03:37.403Z,0.60
2023-04-05T20:06:09.489Z,0.56
2023-04-05T20:08:39.505Z,0.59
2023-04-05T20:11:10.907Z,0.61
2023-04-05T20:13:51.894Z,0.60
2023-04-05T20:16:26.941Z,0.57
2023-04-05T20:19:03.295Z,0.55
2023-04-05T20:21:33.368Z,0.54
2023-04-05T20:24:01.996Z,0.53
2023-04-05T20:26:31.550Z,0.56
2023-04-05T20:29:01.678Z,0.64
2023-04-05T20:31:33.650Z,0.70
2023-04-05T20:34:12.574Z,0.70
2023-04-05T20:36:47.514Z,0.67
2023-04-05T20:39:16.084Z,0.65
2023-04-05T20:41:46.569Z,0.63
2023-04-05T20:44:16.212Z,0.68
2023-04-05T20:46:46.952Z,0.77
2023-04-05T20:49:16.286Z,0.79
2023-04-05T20:51:45.082Z,0.78
2023-04-05T20:54:13.804Z,0.75
2023-04-05T20:56:44.069Z,0.72
2023-04-05T20:59:12.656Z,0.68
2023-04-05T21:01:42.889Z,0.69
2023-04-05T21:04:11.786Z,0.74
2023-04-05T21:09:27.868Z,0.75
2023-04-05T21:11:56.606Z,0.72
2023-04-05T21:14:24.993Z,0.68
2023-04-05T21:16:55.746Z,0.67
2023-04-05T21:19:24.266Z,0.69
2023-04-05T21:21:52.730Z,0.74
2023-04-05T21:24:21.070Z,0.79
2023-04-05T21:26:49.224Z,0.81
2023-04-05T21:29:18.730Z,0.78
2023-04-05T21:31:47.867Z,0.76
2023-04-05T21:34:16.281Z,0.72
2023-04-05T21:36:49.148Z,0.67
2023-04-05T21:39:17.516Z,0.67
2023-04-05T21:47:07.826Z,0.76
2023-04-05T21:49:39.949Z,0.68
2023-04-05T21:52:08.789Z,0.58
2023-04-05T21:54:37.226Z,0.50
2023-04-05T21:57:06.089Z,0.49
2023-04-05T21:59:34.613Z,0.54
2023-04-05T22:02:07.676Z,0.54
2023-04-05T22:04:36.678Z,0.49
2023-04-05T22:07:06.277Z,0.42
2023-04-05T22:09:35.185Z,0.37
2023-04-05T22:12:03.970Z,0.38
2023-04-05T22:14:37.243Z,0.44
2023-04-05T22:17:05.646Z,0.47
2023-04-05T22:19:38.727Z,0.46
2023-04-05T22:22:14.459Z,0.40
2023-04-05T22:24:45.366Z,0.35
2023-04-05T22:27:14.182Z,0.31
2023-04-05T22:29:45.507Z,0.33
2023-04-05T22:32:16.891Z,0.39
2023-04-05T22:34:45.277Z,0.41
2023-04-05T22:37:16.452Z,0.41
2023-04-05T22:39:47.562Z,0.38
2023-04-05T22:42:26.635Z,0.34
2023-04-05T22:44:58.270Z,0.31
2023-04-05T22:47:27.492Z,0.33
2023-04-05T22:49:56.217Z,0.39
2023-04-05T22:52:24.719Z,0.41
2023-04-05T22:54:53.223Z,0.40
2023-04-05T22:57:21.456Z,0.36
2023-04-05T22:59:49.798Z,0.29
2023-04-05T23:02:18.392Z,0.31
2023-04-05T23:04:48.578Z,0.36
2023-04-05T23:07:17.099Z,0.38
2023-04-05T23:09:48.619Z,0.36
2023-04-05T23:12:17.806Z,0.32
2023-04-05T23:14:50.627Z,0.28
2023-04-05T23:17:21.311Z,0.29
2023-04-05T23:19:54.615Z,0.34
2023-04-05T23:22:25.090Z,0.37
2023-04-05T23:25:07.967Z,0.35
2023-04-05T23:27:36.417Z,0.30
2023-04-05T23:30:07.538Z,0.24
2023-04-05T23:32:36.810Z,0.18
2023-04-05T23:35:05.408Z,0.19
2023-04-05T23:37:36.926Z,0.23
2023-04-05T23:40:06.311Z,0.22
2023-04-05T23:42:37.482Z,0.18
2023-04-05T23:45:09.009Z,0.12
2023-04-05T23:47:38.852Z,0.07
2023-04-05T23:50:08.674Z,0.01
2023-04-05T23:52:37.363Z,0.00
2023-04-05T23:55:10.345Z,0.05
2023-04-05T23:57:39.432Z,0.09
